createdAt,value
2019-05-10T00:00:44.244Z,5.80
2019-05-10T00:03:30.522Z,6.43
2019-05-10T00:06:17.060Z,6.40
2019-05-10T00:08:47.679Z,6.97
2019-05-10T00:11:36.952Z,5.50
2019-05-10T00:14:24.258Z,5.60
2019-05-10T00:16:54.335Z,5.87
2019-05-10T00:19:22.718Z,5.47
2019-05-10T00:21:51.160Z,5.33
2019-05-10T00:24:19.612Z,5.17
2019-05-10T00:26:48.010Z,5.10
2019-05-10T00:29:16.522Z,4.50
2019-05-10T00:31:44.916Z,4.80
2019-05-10T00:34:13.376Z,4.70
2019-05-10T00:36:41.818Z,4.43
2019-05-10T00:39:10.222Z,4.67
2019-05-10T00:41:38.619Z,4.67
2019-05-10T00:44:07.170Z,4.43
2019-05-10T00:46:35.653Z,5.40
2019-05-10T00:49:04.137Z,5.80
2019-05-10T00:51:32.567Z,5.00
2019-05-10T00:54:00.979Z,4.73
2019-05-10T00:56:29.387Z,4.50
2019-05-10T00:58:57.788Z,5.30
2019-05-10T01:01:26.299Z,4.50
2019-05-10T01:03:54.713Z,4.80
2019-05-10T01:06:23.121Z,4.47
2019-05-10T01:08:51.532Z,4.20
2019-05-10T01:11:19.951Z,4.00
2019-05-10T01:13:48.432Z,4.47
2019-05-10T01:16:16.919Z,4.40
2019-05-10T01:18:45.394Z,4.77
2019-05-10T01:21:13.915Z,4.60
2019-05-10T01:23:42.301Z,4.80
2019-05-10T01:26:10.723Z,4.47
2019-05-10T01:28:39.116Z,3.87
2019-05-10T01:31:07.532Z,4.00
2019-05-10T01:33:36.025Z,4.30
2019-05-10T01:36:04.504Z,4.30
2019-05-10T01:38:32.921Z,4.73
2019-05-10T01:41:01.402Z,4.30
2019-05-10T01:43:29.802Z,4.00
2019-05-10T01:45:58.291Z,4.90
2019-05-10T01:48:26.708Z,4.70
2019-05-10T01:50:55.120Z,5.00
2019-05-10T01:53:23.517Z,4.00
2019-05-10T01:55:53.066Z,4.70
2019-05-10T01:58:21.635Z,4.50
2019-05-10T02:00:50.064Z,4.20
2019-05-10T02:03:18.474Z,4.37
2019-05-10T02:05:46.879Z,4.90
2019-05-10T02:08:15.500Z,4.17
2019-05-10T02:10:43.918Z,5.30
2019-05-10T02:13:12.341Z,4.70
2019-05-10T02:15:40.771Z,4.23
2019-05-10T02:18:09.179Z,4.30
2019-05-10T02:20:37.574Z,4.47
2019-05-10T02:23:05.987Z,4.23
2019-05-10T02:25:34.417Z,4.73
2019-05-10T02:28:02.809Z,4.27
2019-05-10T02:30:31.226Z,4.73
2019-05-10T02:32:59.704Z,4.30
2019-05-10T02:35:28.100Z,4.57
2019-05-10T02:37:56.542Z,4.67
2019-05-10T02:40:25.027Z,4.27
2019-05-10T02:42:53.461Z,4.20
2019-05-10T02:45:21.995Z,4.30
2019-05-10T02:47:50.445Z,5.13
2019-05-10T02:50:19.031Z,4.57
2019-05-10T02:52:47.460Z,4.10
2019-05-10T02:55:15.939Z,4.20
2019-05-10T02:57:45.177Z,4.23
2019-05-10T03:00:14.328Z,4.50
2019-05-10T03:02:44.459Z,5.00
2019-05-10T03:05:13.000Z,4.07
2019-05-10T03:07:41.507Z,4.90
2019-05-10T03:10:11.878Z,4.80
2019-05-10T03:12:41.803Z,6.60
2019-05-10T03:15:12.250Z,4.53
2019-05-10T03:17:41.559Z,5.00
2019-05-10T03:20:10.593Z,4.17
2019-05-10T03:22:44.027Z,4.40
2019-05-10T03:25:14.899Z,4.20
2019-05-10T03:27:43.539Z,4.50
2019-05-10T03:30:12.446Z,4.97
2019-05-10T03:32:40.815Z,4.47
2019-05-10T03:35:10.378Z,4.40
2019-05-10T03:37:38.909Z,4.80
2019-05-10T03:40:08.555Z,4.90
2019-05-10T03:42:37.202Z,5.13
2019-05-10T03:45:07.225Z,5.50
2019-05-10T03:47:35.781Z,6.50
2019-05-10T03:50:07.084Z,5.77
2019-05-10T03:52:35.527Z,5.53
2019-05-10T03:55:04.793Z,5.93
2019-05-10T03:57:33.251Z,6.47
2019-05-10T04:00:01.735Z,5.40
2019-05-10T04:02:30.135Z,5.83
2019-05-10T04:04:58.546Z,5.30
2019-05-10T04:07:26.967Z,6.40
2019-05-10T04:09:55.372Z,6.43
2019-05-10T04:12:23.774Z,5.60
2019-05-10T04:14:52.251Z,6.03
2019-05-10T04:17:20.649Z,6.07
2019-05-10T04:19:49.081Z,7.10
2019-05-10T04:22:17.468Z,6.63
2019-05-10T04:24:45.863Z,6.60
2019-05-10T04:27:30.770Z,6.70
2019-05-10T04:29:44.401Z,7.10
2019-05-10T04:32:12.888Z,7.00
2019-05-10T04:34:41.316Z,6.77
2019-05-10T04:37:09.791Z,7.00
2019-05-10T04:39:38.209Z,7.47
2019-05-10T04:42:06.605Z,8.50
2019-05-10T04:44:35.045Z,6.90
2019-05-10T04:47:03.496Z,7.60
2019-05-10T04:49:31.905Z,8.50
2019-05-10T04:52:00.329Z,8.43
2019-05-10T04:54:28.739Z,8.40
2019-05-10T04:57:00.064Z,8.73
2019-05-10T04:59:27.278Z,7.60
2019-05-10T05:01:55.706Z,8.40
2019-05-10T05:04:24.221Z,8.60
2019-05-10T05:06:52.642Z,8.80
2019-05-10T05:09:21.052Z,8.23
2019-05-10T05:11:49.475Z,8.90
2019-05-10T05:14:17.881Z,9.70
2019-05-10T05:16:46.350Z,9.60
2019-05-10T05:19:14.859Z,8.07
2019-05-10T05:21:43.324Z,9.33
2019-05-10T05:24:17.193Z,10.27
2019-05-10T05:26:41.925Z,9.10
2019-05-10T05:29:10.392Z,9.90
2019-05-10T05:31:38.845Z,9.33
2019-05-10T05:34:07.415Z,9.67
2019-05-10T05:36:35.851Z,10.70
2019-05-10T05:39:05.764Z,11.20
2019-05-10T05:41:47.690Z,9.83
2019-05-10T05:44:04.390Z,10.43
2019-05-10T05:46:32.800Z,11.40
2019-05-10T05:49:01.210Z,11.30
2019-05-10T05:51:29.651Z,10.47
2019-05-10T05:53:58.078Z,12.37
2019-05-10T05:56:26.485Z,11.67
2019-05-10T05:58:54.973Z,11.37
2019-05-10T06:01:29.081Z,12.80
2019-05-10T06:03:53.511Z,14.27
2019-05-10T06:06:23.505Z,14.33
2019-05-10T06:08:54.596Z,14.67
2019-05-10T06:11:22.449Z,11.83
2019-05-10T06:13:50.940Z,12.20
2019-05-10T06:16:22.209Z,12.17
2019-05-10T06:18:49.616Z,12.50
2019-05-10T06:21:24.852Z,13.07
2019-05-10T06:23:48.236Z,13.07
2019-05-10T06:26:26.228Z,12.40
2019-05-10T06:29:04.532Z,12.37
2019-05-10T06:31:17.171Z,12.83
2019-05-10T06:33:46.854Z,13.77
2019-05-10T06:36:15.445Z,13.83
2019-05-10T06:38:43.880Z,13.73
2019-05-10T06:41:16.923Z,13.70
2019-05-10T06:43:45.719Z,13.47
2019-05-10T06:46:12.581Z,14.87
2019-05-10T06:48:40.973Z,13.80
2019-05-10T06:51:12.318Z,14.07
2019-05-10T06:53:42.190Z,12.70
2019-05-10T06:56:09.745Z,12.20
2019-05-10T06:58:38.512Z,13.10
2019-05-10T07:01:07.036Z,13.13
2019-05-10T07:03:35.549Z,12.13
2019-05-10T07:06:04.198Z,12.17
2019-05-10T07:08:43.768Z,12.50
2019-05-10T07:11:02.777Z,12.23
2019-05-10T07:13:31.227Z,11.97
2019-05-10T07:15:59.638Z,10.70
2019-05-10T07:18:28.112Z,12.70
2019-05-10T07:21:00.777Z,12.23
2019-05-10T07:23:29.951Z,12.93
2019-05-10T07:25:56.945Z,13.50
2019-05-10T07:28:25.351Z,12.90
2019-05-10T07:30:53.791Z,12.47
2019-05-10T07:33:22.281Z,13.77
2019-05-10T07:35:50.689Z,14.00
2019-05-10T07:38:23.480Z,13.90
2019-05-10T07:40:49.405Z,14.37
2019-05-10T07:43:24.981Z,13.90
2019-05-10T07:45:48.089Z,14.70
2019-05-10T07:48:16.522Z,13.70
2019-05-10T07:50:49.809Z,15.73
2019-05-10T07:53:16.206Z,14.80
2019-05-10T07:55:45.327Z,14.73
2019-05-10T07:58:13.734Z,15.40
2019-05-10T08:00:44.630Z,15.80
2019-05-10T08:03:16.771Z,14.43
2019-05-10T08:05:46.243Z,14.50
2019-05-10T08:08:12.782Z,15.37
2019-05-10T08:10:41.193Z,15.80
2019-05-10T08:13:09.690Z,15.23
2019-05-10T08:15:38.581Z,15.27
2019-05-10T08:18:09.873Z,15.90
2019-05-10T08:20:49.307Z,15.77
2019-05-10T08:23:08.313Z,15.50
2019-05-10T08:25:43.983Z,17.07
2019-05-10T08:28:08.372Z,16.23
2019-05-10T08:30:51.915Z,16.20
2019-05-10T08:33:14.028Z,16.97
2019-05-10T08:35:45.860Z,14.83
2019-05-10T08:38:12.988Z,15.93
2019-05-10T08:40:42.796Z,16.20
2019-05-10T08:43:16.183Z,17.47
2019-05-10T08:45:44.946Z,16.30
2019-05-10T08:48:12.754Z,16.77
2019-05-10T08:50:53.340Z,15.40
2019-05-10T08:53:16.380Z,16.87
2019-05-10T08:55:43.254Z,17.20
2019-05-10T08:58:12.502Z,16.43
2019-05-10T09:00:54.273Z,15.77
2019-05-10T09:03:18.005Z,16.60
2019-05-10T09:05:43.261Z,14.50
2019-05-10T09:08:20.127Z,15.30
2019-05-10T09:10:42.760Z,14.73
2019-05-10T09:13:12.850Z,15.23
2019-05-10T09:15:51.312Z,16.80
2019-05-10T09:18:12.818Z,16.90
2019-05-10T09:20:42.093Z,16.90
2019-05-10T09:23:17.868Z,17.07
2019-05-10T09:25:42.637Z,17.20
2019-05-10T09:28:16.672Z,18.03
2019-05-10T09:30:56.265Z,15.80
2019-05-10T09:33:15.058Z,18.17
2019-05-10T09:35:51.248Z,18.53
2019-05-10T09:38:13.840Z,19.00
2019-05-10T09:40:50.663Z,18.50
2019-05-10T09:43:14.987Z,17.77
2019-05-10T09:45:42.801Z,17.67
2019-05-10T09:48:12.142Z,16.97
2019-05-10T09:50:46.367Z,16.97
2019-05-10T09:53:13.616Z,16.40
2019-05-10T09:55:45.458Z,15.33
2019-05-10T09:58:11.262Z,17.00
2019-05-10T10:00:39.735Z,23.10
2019-05-10T10:03:08.547Z,14.90
2019-05-10T10:05:39.778Z,14.87
2019-05-10T10:08:09.025Z,15.10
2019-05-10T10:10:37.365Z,13.70
2019-05-10T10:13:13.633Z,14.10
2019-05-10T10:15:37.350Z,12.70
2019-05-10T10:18:06.422Z,11.73
2019-05-10T10:20:40.667Z,12.30
2019-05-10T10:23:07.361Z,13.50
2019-05-10T10:25:40.814Z,14.33
2019-05-10T10:28:10.420Z,13.60
2019-05-10T10:30:37.368Z,13.93
2019-05-10T10:33:11.881Z,11.93
2019-05-10T10:35:37.820Z,12.97
2019-05-10T10:38:08.045Z,13.83
2019-05-10T10:40:44.197Z,13.83
2019-05-10T10:43:07.564Z,11.60
2019-05-10T10:45:37.738Z,12.17
2019-05-10T10:48:10.657Z,11.63
2019-05-10T10:50:36.817Z,11.70
2019-05-10T10:53:07.786Z,11.77
2019-05-10T10:55:37.802Z,11.60
2019-05-10T10:58:07.353Z,11.17
2019-05-10T11:00:38.867Z,10.70
2019-05-10T11:03:06.889Z,9.63
2019-05-10T11:05:35.359Z,9.80
2019-05-10T11:08:03.798Z,11.90
2019-05-10T11:10:32.691Z,10.27
2019-05-10T11:13:07.964Z,10.00
2019-05-10T11:15:35.824Z,11.73
2019-05-10T11:18:01.808Z,11.53
2019-05-10T11:20:31.817Z,12.87
2019-05-10T11:23:00.551Z,10.40
2019-05-10T11:25:29.076Z,12.30
2019-05-10T11:27:59.302Z,12.20
2019-05-10T11:30:27.833Z,11.60
2019-05-10T11:32:56.318Z,12.63
2019-05-10T11:35:30.509Z,11.17
2019-05-10T11:37:55.034Z,10.83
2019-05-10T11:40:30.652Z,11.70
2019-05-10T11:42:53.769Z,11.03
2019-05-10T11:45:26.129Z,10.63
2019-05-10T11:47:54.491Z,10.80
2019-05-10T11:50:31.320Z,9.97
2019-05-10T11:52:53.065Z,11.20
2019-05-10T11:58:01.905Z,10.60
2019-05-10T12:00:29.171Z,10.10
2019-05-10T12:03:07.431Z,9.00
2019-05-10T12:05:26.290Z,9.90
2019-05-10T12:07:54.753Z,7.33
2019-05-10T12:10:25.708Z,6.80
2019-05-10T12:13:06.041Z,7.40
2019-05-10T12:17:59.325Z,8.07
2019-05-10T12:20:38.979Z,8.10
2019-05-10T12:22:54.497Z,7.97
2019-05-10T12:25:42.693Z,8.40
2019-05-10T12:26:04.742Z,11.13
2019-05-10T12:26:05.332Z,7.20
2019-05-10T12:27:53.111Z,8.90
2019-05-10T12:30:21.849Z,6.90
2019-05-10T12:33:05.860Z,6.77
2019-05-10T12:35:21.446Z,6.57
2019-05-10T12:37:54.046Z,7.50
2019-05-10T12:40:23.842Z,7.60
2019-05-10T12:42:50.546Z,6.27
2019-05-10T12:45:23.038Z,7.07
2019-05-10T12:47:51.716Z,5.70
2019-05-10T12:50:20.506Z,5.97
2019-05-10T12:53:02.683Z,7.20
2019-05-10T12:55:19.059Z,6.13
2019-05-10T12:57:47.463Z,6.33
2019-05-10T13:00:17.508Z,4.90
2019-05-10T13:02:51.465Z,5.90
2019-05-10T13:05:16.325Z,4.60
2019-05-10T13:07:44.934Z,4.83
2019-05-10T13:10:14.782Z,5.07
2019-05-10T13:12:46.874Z,5.43
2019-05-10T13:15:13.717Z,5.20
2019-05-10T13:17:50.401Z,5.67
2019-05-10T13:20:13.299Z,4.60
2019-05-10T13:22:41.678Z,5.27
2019-05-10T13:25:10.660Z,5.30
2019-05-10T13:27:39.191Z,5.57
2019-05-10T13:30:08.552Z,6.50
2019-05-10T13:32:37.056Z,5.43
2019-05-10T13:35:06.795Z,5.57
2019-05-10T13:37:35.216Z,5.00
2019-05-10T13:40:06.124Z,5.80
2019-05-10T13:42:36.488Z,4.60
2019-05-10T13:45:06.362Z,4.70
2019-05-10T13:47:34.869Z,5.30
2019-05-10T13:50:03.867Z,6.13
2019-05-10T13:52:37.857Z,5.50
2019-05-10T13:55:02.404Z,6.13
2019-05-10T13:57:30.923Z,6.13
2019-05-10T14:00:02.279Z,4.70
2019-05-10T14:02:33.073Z,5.60
2019-05-10T14:04:59.767Z,5.33
2019-05-10T14:07:28.173Z,7.53
2019-05-10T14:09:56.630Z,5.27
2019-05-10T14:12:25.750Z,4.67
2019-05-10T14:14:55.446Z,5.10
2019-05-10T14:17:24.491Z,5.20
2019-05-10T14:19:52.946Z,4.97
2019-05-10T14:22:21.386Z,5.23
2019-05-10T14:24:52.800Z,5.50
2019-05-10T14:27:19.952Z,5.03
2019-05-10T14:29:48.374Z,4.53
2019-05-10T14:32:16.852Z,4.23
2019-05-10T14:34:46.351Z,4.27
2019-05-10T14:37:19.703Z,6.00
2019-05-10T14:39:45.079Z,5.13
2019-05-10T14:42:13.541Z,5.30
2019-05-10T14:44:42.081Z,4.37
2019-05-10T14:47:11.267Z,4.67
2019-05-10T14:49:42.097Z,4.33
2019-05-10T14:52:09.980Z,4.53
2019-05-10T14:54:43.544Z,3.90
2019-05-10T14:57:08.536Z,4.60
2019-05-10T14:59:37.023Z,4.63
2019-05-10T15:02:05.592Z,5.00
2019-05-10T15:04:49.449Z,5.50
2019-05-10T15:07:08.724Z,4.60
2019-05-10T15:09:34.493Z,4.20
2019-05-10T15:12:03.067Z,4.40
2019-05-10T15:14:31.487Z,4.10
2019-05-10T15:16:59.934Z,4.17
2019-05-10T15:19:31.231Z,4.20
2019-05-10T15:21:58.542Z,4.67
2019-05-10T15:24:27.024Z,4.10
2019-05-10T15:26:55.529Z,4.60
2019-05-10T15:29:24.744Z,4.87
2019-05-10T15:31:53.423Z,4.03
2019-05-10T15:34:21.939Z,4.50
2019-05-10T15:36:50.340Z,3.80
2019-05-10T15:39:23.123Z,4.57
2019-05-10T15:41:53.698Z,4.30
2019-05-10T15:44:19.037Z,4.57
2019-05-10T15:46:47.450Z,4.63
2019-05-10T15:49:22.667Z,3.93
2019-05-10T15:51:49.111Z,4.10
2019-05-10T15:54:16.311Z,5.50
2019-05-10T15:56:44.878Z,4.87
2019-05-10T15:59:19.132Z,5.00
2019-05-10T16:01:45.631Z,4.10
2019-05-10T16:04:13.672Z,4.90
2019-05-10T16:06:42.111Z,5.23
2019-05-10T16:09:17.579Z,5.30
2019-05-10T16:11:40.941Z,5.70
2019-05-10T16:14:09.366Z,5.00
2019-05-10T16:16:39.762Z,6.10
2019-05-10T16:19:12.923Z,5.47
2019-05-10T16:21:38.128Z,6.07
2019-05-10T16:24:06.790Z,6.67
2019-05-10T16:26:35.196Z,6.70
2019-05-10T16:29:03.676Z,7.27
2019-05-10T16:31:32.197Z,6.90
2019-05-10T16:34:00.676Z,7.03
2019-05-10T16:36:30.163Z,7.00
2019-05-10T16:39:01.712Z,8.20
2019-05-10T16:41:30.014Z,7.67
2019-05-10T16:44:00.185Z,7.57
2019-05-10T16:46:28.748Z,6.80
2019-05-10T16:48:57.188Z,11.63
2019-05-10T16:51:25.610Z,7.80
2019-05-10T16:53:54.033Z,9.27
2019-05-10T16:56:22.460Z,7.23
2019-05-10T16:58:53.009Z,7.50
2019-05-10T17:01:25.346Z,7.07
2019-05-10T17:03:59.849Z,8.67
2019-05-10T17:06:24.241Z,6.53
2019-05-10T17:08:52.691Z,7.27
2019-05-10T17:11:21.085Z,5.53
2019-05-10T17:13:49.508Z,5.87
2019-05-10T17:16:18.881Z,5.27
2019-05-10T17:18:49.948Z,5.93
2019-05-10T17:21:17.808Z,4.97
2019-05-10T17:23:46.738Z,4.83
2019-05-10T17:26:16.428Z,4.90
2019-05-10T17:28:44.866Z,5.23
2019-05-10T17:31:13.284Z,6.67
2019-05-10T17:33:42.665Z,5.30
2019-05-10T17:36:14.545Z,5.60
2019-05-10T17:38:47.275Z,5.27
2019-05-10T17:41:12.663Z,5.50
2019-05-10T17:43:41.135Z,5.63
2019-05-10T17:46:12.805Z,5.90
2019-05-10T17:48:40.821Z,5.77
2019-05-10T17:51:10.006Z,5.70
2019-05-10T17:53:38.397Z,5.37
2019-05-10T17:56:06.943Z,6.17
2019-05-10T17:58:35.348Z,5.90
2019-05-10T18:01:03.833Z,7.00
2019-05-10T18:03:32.284Z,5.20
2019-05-10T18:06:00.762Z,5.30
2019-05-10T18:08:29.193Z,4.80
2019-05-10T18:11:04.168Z,4.90
2019-05-10T18:13:27.774Z,5.30
2019-05-10T18:15:56.210Z,5.20
2019-05-10T18:18:24.633Z,5.70
2019-05-10T18:20:53.059Z,5.53
2019-05-10T18:23:22.971Z,5.50
2019-05-10T18:25:52.539Z,5.50
2019-05-10T18:28:21.994Z,5.90
2019-05-10T18:30:50.386Z,5.80
2019-05-10T18:33:18.932Z,5.20
2019-05-10T18:35:52.624Z,5.70
2019-05-10T18:38:17.570Z,5.63
2019-05-10T18:40:46.143Z,6.70
2019-05-10T18:43:14.725Z,12.50
2019-05-10T18:45:43.359Z,7.70
2019-05-10T18:48:11.835Z,5.90
2019-05-10T18:50:45.277Z,6.10
2019-05-10T18:53:10.462Z,5.90
2019-05-10T18:55:38.970Z,6.10
2019-05-10T18:58:07.430Z,5.37
2019-05-10T19:00:35.912Z,9.57
2019-05-10T19:03:04.421Z,45.47
2019-05-10T19:05:33.185Z,24.20
2019-05-10T19:08:05.389Z,11.53
2019-05-10T19:10:31.930Z,21.20
2019-05-10T19:13:03.828Z,7.77
2019-05-10T19:15:30.551Z,6.67
2019-05-10T19:17:58.952Z,7.00
2019-05-10T19:20:27.529Z,6.57
2019-05-10T19:22:56.049Z,5.80
2019-05-10T19:25:24.469Z,5.50
2019-05-10T19:27:53.039Z,8.40
2019-05-10T19:30:22.559Z,12.20
2019-05-10T19:32:56.062Z,5.90
2019-05-10T19:35:21.328Z,5.40
2019-05-10T19:37:49.723Z,5.33
2019-05-10T19:40:18.263Z,5.60
2019-05-10T19:42:49.404Z,5.63
2019-05-10T19:45:19.354Z,5.60
2019-05-10T19:47:49.751Z,6.30
2019-05-10T19:50:17.770Z,6.67
2019-05-10T19:52:46.193Z,5.50
2019-05-10T19:55:19.410Z,7.57
2019-05-10T19:57:49.546Z,6.43
2019-05-10T20:00:16.351Z,6.67
2019-05-10T20:02:44.913Z,6.33
2019-05-10T20:05:13.417Z,7.10
2019-05-10T20:07:45.819Z,7.20
2019-05-10T20:10:12.246Z,6.53
2019-05-10T20:12:40.677Z,7.30
2019-05-10T20:15:10.478Z,7.20
2019-05-10T20:17:39.231Z,7.40
2019-05-10T20:20:07.711Z,6.60
2019-05-10T20:22:36.543Z,6.17
2019-05-10T20:25:06.927Z,6.57
2019-05-10T20:27:35.420Z,7.30
2019-05-10T20:30:04.823Z,6.90
2019-05-10T20:32:33.319Z,7.23
2019-05-10T20:35:01.721Z,8.73
2019-05-10T20:37:30.244Z,7.93
2019-05-10T20:39:58.656Z,8.53
2019-05-10T20:42:27.187Z,7.30
2019-05-10T20:45:06.883Z,7.50
2019-05-10T20:47:25.831Z,7.30
2019-05-10T20:49:54.260Z,7.60
2019-05-10T20:52:22.828Z,7.03
2019-05-10T20:54:51.233Z,7.40
2019-05-10T20:57:19.678Z,7.20
2019-05-10T20:59:48.116Z,9.50
2019-05-10T21:02:16.607Z,9.03
2019-05-10T21:04:45.027Z,9.27
2019-05-10T21:07:13.453Z,8.10
2019-05-10T21:09:41.867Z,7.90
2019-05-10T21:12:10.374Z,9.73
2019-05-10T21:14:38.797Z,8.13
2019-05-10T21:17:07.239Z,7.50
2019-05-10T21:19:35.673Z,7.80
2019-05-10T21:22:04.081Z,7.10
2019-05-10T21:24:32.574Z,7.57
2019-05-10T21:27:00.986Z,8.20
2019-05-10T21:29:29.538Z,8.20
2019-05-10T21:31:58.000Z,8.33
2019-05-10T21:34:26.447Z,8.17
2019-05-10T21:36:54.876Z,8.00
2019-05-10T21:39:23.290Z,7.67
2019-05-10T21:41:51.738Z,7.80
2019-05-10T21:44:20.211Z,8.23
2019-05-10T21:46:48.728Z,7.93
2019-05-10T21:49:17.160Z,7.93
2019-05-10T21:51:45.668Z,8.30
2019-05-10T21:54:14.101Z,7.80
2019-05-10T21:56:42.602Z,8.00
2019-05-10T21:59:11.043Z,9.13
2019-05-10T22:01:39.589Z,8.67
2019-05-10T22:04:08.095Z,8.40
2019-05-10T22:06:36.528Z,8.90
2019-05-10T22:09:07.365Z,9.07
2019-05-10T22:11:35.865Z,8.70
2019-05-10T22:14:04.710Z,21.73
2019-05-10T22:16:33.358Z,9.30
2019-05-10T22:19:02.585Z,16.93
2019-05-10T22:21:31.263Z,10.30
2019-05-10T22:23:59.690Z,8.90
2019-05-10T22:26:28.246Z,8.17
2019-05-10T22:28:56.640Z,8.00
2019-05-10T22:31:25.072Z,8.77
2019-05-10T22:33:53.446Z,9.00
2019-05-10T22:36:21.872Z,10.07
2019-05-10T22:39:05.651Z,8.40
2019-05-10T22:41:22.096Z,8.03
2019-05-10T22:43:50.605Z,7.93
2019-05-10T22:46:19.020Z,8.70
2019-05-10T22:48:47.408Z,7.67
2019-05-10T22:51:15.859Z,7.70
2019-05-10T22:53:53.258Z,8.87
2019-05-10T22:56:14.514Z,8.53
2019-05-10T22:58:43.037Z,8.77
2019-05-10T23:01:11.444Z,8.50
2019-05-10T23:03:39.858Z,8.30
2019-05-10T23:06:08.273Z,9.63
2019-05-10T23:08:36.681Z,9.30
2019-05-10T23:11:06.888Z,8.50
2019-05-10T23:13:35.296Z,8.87
2019-05-10T23:16:03.733Z,9.07
2019-05-10T23:18:32.129Z,9.93
2019-05-10T23:21:00.588Z,10.10
2019-05-10T23:23:32.178Z,9.30
2019-05-10T23:26:02.091Z,10.20
2019-05-10T23:28:30.504Z,10.17
2019-05-10T23:30:58.910Z,9.80
2019-05-10T23:33:27.413Z,9.63
2019-05-10T23:35:55.835Z,10.13
2019-05-10T23:38:24.251Z,10.70
2019-05-10T23:40:52.749Z,12.33
2019-05-10T23:43:21.179Z,11.07
2019-05-10T23:45:49.615Z,10.47
2019-05-10T23:48:18.227Z,9.87
2019-05-10T23:50:46.633Z,11.30
2019-05-10T23:53:15.334Z,10.80
2019-05-10T23:55:43.756Z,9.40
2019-05-10T23:58:12.158Z,10.73
